createdAt,value
2023-09-07T00:02:12.090Z,10.60
2023-09-07T00:04:39.173Z,10.70
2023-09-07T00:07:06.237Z,10.70
2023-09-07T00:09:33.193Z,10.60
2023-09-07T00:12:00.035Z,10.70
2023-09-07T00:14:26.993Z,10.70
2023-09-07T00:16:54.024Z,10.70
2023-09-07T00:19:21.015Z,10.70
2023-09-07T00:21:47.920Z,10.80
2023-09-07T00:24:17.253Z,10.70
2023-09-07T00:26:44.329Z,10.70
2023-09-07T00:29:11.175Z,10.70
2023-09-07T00:31:38.076Z,10.80
2023-09-07T00:34:05.145Z,10.80
2023-09-07T00:36:32.085Z,10.90
2023-09-07T00:38:58.938Z,10.90
2023-09-07T00:41:25.780Z,10.90
2023-09-07T00:43:52.650Z,11.00
2023-09-07T00:46:19.745Z,11.00
2023-09-07T00:48:46.871Z,10.90
2023-09-07T00:51:13.723Z,10.80
2023-09-07T00:53:41.655Z,10.80
2023-09-07T00:56:08.660Z,10.80
2023-09-07T00:58:35.640Z,10.90
2023-09-07T01:01:02.586Z,11.00
2023-09-07T01:03:29.573Z,11.10
2023-09-07T01:06:03.490Z,11.00
2023-09-07T01:08:36.560Z,11.00
2023-09-07T01:11:13.419Z,11.00
2023-09-07T01:13:40.298Z,11.00
2023-09-07T01:16:08.259Z,11.00
2023-09-07T01:18:35.498Z,11.00
2023-09-07T01:21:04.300Z,11.00
2023-09-07T01:23:31.872Z,11.00
2023-09-07T01:25:59.392Z,11.10
2023-09-07T01:28:26.433Z,11.00
2023-09-07T01:30:53.848Z,11.10
2023-09-07T01:33:20.775Z,11.10
2023-09-07T01:35:48.038Z,11.00
2023-09-07T01:38:15.102Z,11.00
2023-09-07T01:40:41.970Z,10.90
2023-09-07T01:43:08.970Z,10.90
2023-09-07T01:45:35.866Z,10.90
2023-09-07T01:48:03.054Z,10.90
2023-09-07T01:50:30.056Z,10.80
2023-09-07T01:52:56.889Z,10.90
2023-09-07T01:55:23.813Z,10.90
2023-09-07T01:57:50.683Z,10.90
2023-09-07T02:00:17.631Z,11.00
2023-09-07T02:02:44.522Z,11.00
2023-09-07T02:05:11.508Z,10.90
2023-09-07T02:07:38.407Z,10.90
2023-09-07T02:10:05.734Z,10.90
2023-09-07T02:12:32.607Z,10.80
2023-09-07T02:15:05.483Z,10.90
2023-09-07T02:17:33.433Z,10.90
2023-09-07T02:20:00.476Z,11.00
2023-09-07T02:22:27.344Z,11.00
2023-09-07T02:24:54.197Z,10.90
2023-09-07T02:27:21.077Z,10.90
2023-09-07T02:29:47.979Z,10.90
2023-09-07T02:32:15.023Z,10.90
2023-09-07T02:34:41.899Z,10.90
2023-09-07T02:37:08.731Z,10.90
2023-09-07T02:39:35.607Z,10.90
2023-09-07T02:42:02.459Z,10.90
2023-09-07T02:44:29.907Z,11.00
2023-09-07T02:46:56.743Z,10.90
2023-09-07T02:49:23.624Z,10.90
2023-09-07T02:51:50.657Z,10.90
2023-09-07T02:54:17.486Z,10.90
2023-09-07T02:56:44.347Z,11.00
2023-09-07T02:59:11.243Z,11.10
2023-09-07T03:01:40.563Z,11.00
2023-09-07T03:04:08.487Z,11.10
2023-09-07T03:06:35.346Z,11.10
2023-09-07T03:09:02.304Z,11.10
2023-09-07T03:11:34.619Z,11.10
2023-09-07T03:14:01.811Z,11.10
2023-09-07T03:16:28.783Z,11.10
2023-09-07T03:18:55.909Z,11.20
2023-09-07T03:21:26.616Z,11.30
2023-09-07T03:23:54.171Z,11.40
2023-09-07T03:26:21.019Z,11.30
2023-09-07T03:28:47.846Z,11.20
2023-09-07T03:31:14.805Z,11.20
2023-09-07T03:33:41.713Z,11.40
2023-09-07T03:36:10.600Z,11.40
2023-09-07T03:38:37.649Z,11.50
2023-09-07T03:41:04.588Z,11.50
2023-09-07T03:43:31.473Z,11.40
2023-09-07T03:45:59.201Z,11.40
2023-09-07T03:48:26.135Z,11.40
2023-09-07T03:50:52.972Z,11.50
2023-09-07T03:53:19.921Z,11.60
2023-09-07T03:55:46.860Z,11.60
2023-09-07T03:58:13.738Z,11.60
2023-09-07T04:00:42.300Z,11.60
2023-09-07T04:03:09.724Z,11.60
2023-09-07T04:05:39.735Z,11.80
2023-09-07T04:08:07.146Z,11.70
2023-09-07T04:10:34.189Z,11.70
2023-09-07T04:13:01.118Z,11.70
2023-09-07T04:15:28.019Z,11.70
2023-09-07T04:17:56.296Z,11.80
2023-09-07T04:20:23.412Z,11.70
2023-09-07T04:22:50.340Z,11.70
2023-09-07T04:25:17.274Z,11.70
2023-09-07T04:27:44.186Z,11.70
2023-09-07T04:30:11.463Z,11.80
2023-09-07T04:32:38.897Z,11.80
2023-09-07T04:35:06.150Z,11.80
2023-09-07T04:37:32.986Z,11.80
2023-09-07T04:39:59.923Z,11.80
2023-09-07T04:42:26.768Z,11.80
2023-09-07T04:44:53.653Z,11.80
2023-09-07T04:47:20.502Z,11.90
2023-09-07T04:49:52.085Z,11.90
2023-09-07T04:52:19.153Z,11.90
2023-09-07T04:54:46.441Z,12.10
2023-09-07T04:57:18.113Z,12.10
2023-09-07T04:59:45.097Z,12.30
2023-09-07T05:02:13.051Z,12.30
2023-09-07T05:04:40.287Z,12.30
2023-09-07T05:07:07.189Z,12.60
2023-09-07T05:09:34.484Z,12.70
2023-09-07T05:12:01.389Z,12.80
2023-09-07T05:14:28.369Z,13.00
2023-09-07T05:16:57.425Z,13.10
2023-09-07T05:19:24.462Z,13.20
2023-09-07T05:21:51.390Z,13.30
2023-09-07T05:24:18.297Z,13.40
2023-09-07T05:26:45.376Z,13.40
2023-09-07T05:29:13.045Z,13.50
2023-09-07T05:31:40.071Z,13.60
2023-09-07T05:34:07.054Z,13.60
2023-09-07T05:36:34.069Z,13.60
2023-09-07T05:39:03.096Z,13.70
2023-09-07T05:41:30.035Z,13.70
2023-09-07T05:43:57.045Z,13.80
2023-09-07T05:46:24.114Z,13.80
2023-09-07T05:48:51.694Z,13.80
2023-09-07T05:51:18.675Z,13.90
2023-09-07T05:53:45.603Z,14.00
2023-09-07T05:56:12.468Z,13.90
2023-09-07T05:58:39.423Z,14.00
2023-09-07T06:01:06.804Z,14.20
2023-09-07T06:03:36.216Z,14.20
2023-09-07T06:06:03.993Z,14.30
2023-09-07T06:08:31.095Z,14.40
2023-09-07T06:10:58.228Z,14.50
2023-09-07T06:13:25.070Z,14.50
2023-09-07T06:15:51.937Z,14.60
2023-09-07T06:18:18.826Z,14.70
2023-09-07T06:20:45.690Z,14.80
2023-09-07T06:23:12.570Z,14.80
2023-09-07T06:25:39.657Z,14.90
2023-09-07T06:28:06.774Z,15.00
2023-09-07T06:30:33.685Z,15.10
2023-09-07T06:33:01.000Z,15.10
2023-09-07T06:35:27.953Z,15.20
2023-09-07T06:37:54.840Z,15.30
2023-09-07T06:40:21.717Z,15.30
2023-09-07T06:42:48.694Z,15.40
2023-09-07T06:45:15.652Z,15.40
2023-09-07T06:47:42.655Z,15.40
2023-09-07T06:50:09.623Z,15.50
2023-09-07T06:52:36.513Z,15.60
2023-09-07T06:55:03.438Z,15.70
2023-09-07T06:57:30.944Z,15.80
2023-09-07T06:59:57.841Z,15.80
2023-09-07T07:02:24.828Z,15.90
2023-09-07T07:04:52.031Z,16.10
2023-09-07T07:07:19.251Z,16.10
2023-09-07T07:09:46.221Z,16.20
2023-09-07T07:12:13.708Z,16.30
2023-09-07T07:14:40.620Z,16.40
2023-09-07T07:17:07.648Z,16.50
2023-09-07T07:19:34.639Z,16.60
2023-09-07T07:22:01.572Z,16.60
2023-09-07T07:24:28.433Z,16.70
2023-09-07T07:26:55.573Z,16.80
2023-09-07T07:29:22.664Z,16.90
2023-09-07T07:31:49.624Z,17.00
2023-09-07T07:34:16.491Z,17.10
2023-09-07T07:36:43.665Z,17.10
2023-09-07T07:39:10.618Z,17.20
2023-09-07T07:41:40.093Z,17.30
2023-09-07T07:44:07.875Z,17.30
2023-09-07T07:46:34.807Z,17.40
2023-09-07T07:49:01.862Z,17.50
2023-09-07T07:51:28.865Z,17.60
2023-09-07T07:53:57.579Z,17.70
2023-09-07T07:56:24.821Z,17.70
2023-09-07T07:58:51.918Z,17.80
2023-09-07T08:01:21.625Z,17.90
2023-09-07T08:03:49.126Z,18.00
2023-09-07T08:06:16.159Z,18.10
2023-09-07T08:08:43.131Z,18.20
2023-09-07T08:11:10.525Z,18.20
2023-09-07T08:13:38.189Z,18.30
2023-09-07T08:16:06.158Z,18.40
2023-09-07T08:18:35.900Z,18.50
2023-09-07T08:21:03.648Z,18.70
2023-09-07T08:23:30.628Z,18.60
2023-09-07T08:25:57.641Z,18.70
2023-09-07T08:28:26.706Z,18.80
2023-09-07T08:30:54.740Z,19.00
2023-09-07T08:33:30.155Z,19.10
2023-09-07T08:35:58.265Z,19.20
2023-09-07T08:38:29.050Z,19.30
2023-09-07T08:40:57.046Z,19.60
2023-09-07T08:43:24.715Z,19.60
2023-09-07T08:46:22.832Z,19.30
2023-09-07T08:48:51.663Z,19.10
2023-09-07T08:51:20.624Z,18.90
2023-09-07T08:53:48.187Z,18.80
2023-09-07T08:56:15.565Z,18.60
2023-09-07T08:58:44.004Z,18.50
2023-09-07T09:01:11.077Z,18.50
2023-09-07T09:03:38.495Z,18.50
2023-09-07T09:06:06.600Z,18.50
2023-09-07T09:08:46.914Z,18.50
2023-09-07T09:11:14.079Z,18.40
2023-09-07T09:13:42.580Z,18.40
2023-09-07T09:16:10.325Z,18.30
2023-09-07T09:18:37.868Z,18.40
2023-09-07T09:21:06.252Z,18.30
2023-09-07T09:23:39.682Z,18.30
2023-09-07T09:26:06.590Z,18.30
2023-09-07T09:28:36.954Z,18.30
2023-09-07T09:31:04.848Z,18.30
2023-09-07T09:33:32.875Z,18.40
2023-09-07T09:36:00.284Z,18.50
2023-09-07T09:38:27.324Z,18.50
2023-09-07T09:40:54.858Z,18.60
2023-09-07T09:43:22.601Z,18.70
2023-09-07T09:45:52.298Z,18.90
2023-09-07T09:48:23.286Z,19.00
2023-09-07T09:50:51.767Z,19.10
2023-09-07T09:53:24.111Z,19.30
2023-09-07T09:55:54.494Z,19.70
2023-09-07T09:58:21.379Z,20.10
2023-09-07T10:00:51.551Z,20.50
2023-09-07T10:03:34.121Z,21.00
2023-09-07T10:06:11.432Z,21.40
2023-09-07T10:08:38.462Z,21.70
2023-09-07T10:11:12.564Z,21.90
2023-09-07T10:13:39.577Z,21.90
2023-09-07T10:16:10.244Z,21.90
2023-09-07T10:18:40.866Z,22.20
2023-09-07T10:21:07.976Z,22.40
2023-09-07T10:23:43.195Z,22.60
2023-09-07T10:26:18.360Z,22.50
2023-09-07T10:28:46.265Z,22.60
2023-09-07T10:31:20.173Z,22.40
2023-09-07T10:33:48.144Z,22.20
2023-09-07T10:36:23.209Z,21.70
2023-09-07T10:38:50.783Z,21.50
2023-09-07T10:41:17.935Z,21.50
2023-09-07T10:43:55.928Z,21.50
2023-09-07T10:46:24.224Z,21.50
2023-09-07T10:48:55.026Z,21.70
2023-09-07T10:51:22.107Z,22.00
2023-09-07T10:53:48.988Z,21.90
2023-09-07T10:56:16.031Z,21.90
2023-09-07T10:58:43.920Z,21.80
2023-09-07T11:01:11.169Z,21.80
2023-09-07T11:03:39.000Z,21.70
2023-09-07T11:06:14.950Z,22.20
2023-09-07T11:08:42.580Z,22.50
2023-09-07T11:11:10.207Z,23.30
2023-09-07T11:13:37.470Z,23.70
2023-09-07T11:16:04.905Z,23.80
2023-09-07T11:18:31.957Z,23.80
2023-09-07T11:21:00.799Z,23.90
2023-09-07T11:23:27.731Z,23.40
2023-09-07T11:25:54.606Z,23.00
2023-09-07T11:28:23.805Z,22.70
2023-09-07T11:30:55.023Z,22.60
2023-09-07T11:33:23.409Z,22.50
2023-09-07T11:35:50.679Z,22.20
2023-09-07T11:38:18.838Z,22.60
2023-09-07T11:40:46.303Z,22.70
2023-09-07T11:43:17.920Z,23.10
2023-09-07T11:45:46.710Z,23.30
2023-09-07T11:48:13.883Z,23.40
2023-09-07T11:50:41.471Z,23.80
2023-09-07T11:53:09.196Z,23.80
2023-09-07T11:55:36.665Z,23.70
2023-09-07T11:58:04.446Z,24.20
2023-09-07T12:00:32.648Z,24.50
2023-09-07T12:03:00.101Z,24.20
2023-09-07T12:05:27.506Z,24.50
2023-09-07T12:07:54.617Z,24.10
2023-09-07T12:10:21.916Z,23.80
2023-09-07T12:12:48.823Z,23.60
2023-09-07T12:15:15.724Z,23.90
2023-09-07T12:17:42.722Z,23.80
2023-09-07T12:20:11.809Z,23.50
2023-09-07T12:22:39.214Z,23.30
2023-09-07T12:25:15.388Z,23.50
2023-09-07T12:30:21.804Z,23.30
2023-09-07T12:32:49.662Z,23.30
2023-09-07T12:35:17.244Z,23.50
2023-09-07T12:37:44.383Z,23.70
2023-09-07T12:40:15.248Z,23.60
2023-09-07T12:42:43.778Z,23.70
2023-09-07T12:45:11.914Z,23.90
2023-09-07T12:47:39.967Z,24.00
2023-09-07T12:50:07.998Z,24.00
2023-09-07T12:52:37.510Z,23.90
2023-09-07T12:55:06.072Z,24.00
2023-09-07T12:57:32.935Z,24.20
2023-09-07T12:59:59.820Z,24.50
2023-09-07T13:02:26.899Z,24.40
2023-09-07T13:04:56.773Z,24.30
2023-09-07T13:07:23.754Z,24.30
2023-09-07T13:09:50.975Z,24.00
2023-09-07T13:12:17.890Z,24.10
2023-09-07T13:14:44.811Z,23.80
2023-09-07T13:17:15.455Z,23.90
2023-09-07T13:19:43.005Z,23.90
2023-09-07T13:22:10.747Z,23.60
2023-09-07T13:24:37.979Z,23.70
2023-09-07T13:27:05.136Z,23.40
2023-09-07T13:29:35.015Z,23.20
2023-09-07T13:32:01.866Z,23.60
2023-09-07T13:34:29.125Z,23.60
2023-09-07T13:36:56.856Z,23.70
2023-09-07T13:39:24.320Z,23.40
2023-09-07T13:41:51.172Z,23.30
2023-09-07T13:44:18.874Z,23.10
2023-09-07T13:46:46.186Z,22.70
2023-09-07T13:49:13.739Z,22.60
2023-09-07T13:51:44.140Z,22.40
2023-09-07T13:54:11.437Z,22.20
2023-09-07T13:56:38.757Z,22.20
2023-09-07T13:59:05.963Z,22.20
2023-09-07T14:01:33.546Z,22.30
2023-09-07T14:04:01.138Z,22.20
2023-09-07T14:06:28.426Z,22.20
2023-09-07T14:08:55.419Z,21.70
2023-09-07T14:11:23.796Z,21.70
2023-09-07T14:13:55.613Z,21.50
2023-09-07T14:16:22.946Z,21.30
2023-09-07T14:18:50.972Z,21.20
2023-09-07T14:21:18.350Z,21.10
2023-09-07T14:23:45.891Z,21.00
2023-09-07T14:26:12.806Z,21.10
2023-09-07T14:28:40.508Z,20.90
2023-09-07T14:31:08.786Z,20.90
2023-09-07T14:33:39.955Z,20.80
2023-09-07T14:36:07.735Z,20.80
2023-09-07T14:38:41.686Z,20.90
2023-09-07T14:41:14.283Z,20.80
2023-09-07T14:43:41.132Z,20.80
2023-09-07T14:46:08.020Z,20.80
2023-09-07T14:48:35.066Z,20.60
2023-09-07T14:51:02.013Z,20.50
2023-09-07T14:53:28.873Z,20.50
2023-09-07T14:55:57.283Z,20.50
2023-09-07T14:58:24.184Z,20.50
2023-09-07T15:00:52.153Z,20.50
2023-09-07T15:03:19.032Z,20.30
2023-09-07T15:05:45.980Z,20.50
2023-09-07T15:08:12.891Z,20.50
2023-09-07T15:10:39.758Z,20.70
2023-09-07T15:13:08.121Z,20.50
2023-09-07T15:15:38.247Z,20.30
2023-09-07T15:18:05.544Z,20.20
2023-09-07T15:20:32.602Z,20.20
2023-09-07T15:22:59.528Z,20.20
2023-09-07T15:25:27.337Z,20.20
2023-09-07T15:27:57.433Z,20.10
2023-09-07T15:30:25.411Z,20.20
2023-09-07T15:32:52.935Z,20.20
2023-09-07T15:35:20.384Z,20.00
2023-09-07T15:37:48.055Z,20.00
2023-09-07T15:40:15.581Z,20.10
2023-09-07T15:42:43.096Z,20.00
2023-09-07T15:45:10.929Z,20.10
2023-09-07T15:47:37.952Z,20.10
2023-09-07T15:50:05.866Z,20.00
2023-09-07T15:52:33.596Z,19.90
2023-09-07T15:55:00.504Z,19.80
2023-09-07T15:57:27.485Z,19.80
2023-09-07T15:59:57.412Z,19.90
2023-09-07T16:02:24.472Z,19.80
2023-09-07T16:04:51.647Z,19.80
2023-09-07T16:07:18.477Z,19.80
2023-09-07T16:09:45.387Z,19.80
2023-09-07T16:12:13.255Z,19.80
2023-09-07T16:14:40.193Z,19.80
2023-09-07T16:17:09.270Z,19.60
2023-09-07T16:19:36.209Z,19.70
2023-09-07T16:22:07.321Z,19.70
2023-09-07T16:24:34.200Z,19.40
2023-09-07T16:27:01.065Z,19.50
2023-09-07T16:29:27.972Z,19.30
2023-09-07T16:31:54.991Z,19.10
2023-09-07T16:34:22.014Z,19.00
2023-09-07T16:36:48.890Z,18.90
2023-09-07T16:39:15.908Z,18.90
2023-09-07T16:41:42.956Z,18.70
2023-09-07T16:44:09.873Z,18.70
2023-09-07T16:46:36.762Z,18.60
2023-09-07T16:49:03.772Z,18.40
2023-09-07T16:51:30.673Z,18.30
2023-09-07T16:53:57.983Z,18.20
2023-09-07T16:56:28.587Z,18.10
2023-09-07T17:01:26.088Z,18.20
2023-09-07T17:03:53.073Z,18.20
2023-09-07T17:06:20.322Z,18.20
2023-09-07T17:08:47.249Z,18.20
2023-09-07T17:11:14.202Z,18.10
2023-09-07T17:13:48.219Z,18.10
2023-09-07T17:16:22.957Z,18.20
2023-09-07T17:18:49.838Z,18.00
2023-09-07T17:21:16.781Z,17.90
2023-09-07T17:23:43.744Z,17.80
2023-09-07T17:26:10.739Z,17.70
2023-09-07T17:28:37.700Z,17.60
2023-09-07T17:31:04.669Z,17.40
2023-09-07T17:33:31.737Z,17.30
2023-09-07T17:35:58.830Z,17.30
2023-09-07T17:38:25.745Z,17.20
2023-09-07T17:40:52.697Z,17.10
2023-09-07T17:43:19.563Z,17.00
2023-09-07T17:45:46.392Z,17.00
2023-09-07T17:48:13.322Z,16.90
2023-09-07T17:50:40.813Z,16.90
2023-09-07T17:53:07.842Z,16.80
2023-09-07T17:55:34.718Z,16.70
2023-09-07T17:58:01.569Z,16.70
2023-09-07T18:00:28.555Z,16.70
2023-09-07T18:03:00.784Z,16.60
2023-09-07T18:05:31.275Z,16.50
2023-09-07T18:07:58.154Z,16.50
2023-09-07T18:10:25.059Z,16.50
2023-09-07T18:12:51.967Z,16.40
2023-09-07T18:15:18.842Z,16.40
2023-09-07T18:17:45.704Z,16.30
2023-09-07T18:20:12.851Z,16.30
2023-09-07T18:22:39.770Z,16.20
2023-09-07T18:25:06.851Z,16.20
2023-09-07T18:27:34.031Z,16.10
2023-09-07T18:30:01.883Z,16.10
2023-09-07T18:32:29.038Z,16.10
2023-09-07T18:34:55.903Z,16.00
2023-09-07T18:37:22.841Z,16.00
2023-09-07T18:39:49.744Z,16.00
2023-09-07T18:42:17.172Z,16.00
2023-09-07T18:44:44.696Z,16.00
2023-09-07T18:47:12.019Z,16.10
2023-09-07T18:49:38.977Z,16.10
2023-09-07T18:52:06.131Z,16.10
2023-09-07T18:54:33.049Z,16.20
2023-09-07T18:56:59.956Z,16.10
2023-09-07T18:59:26.844Z,16.10
2023-09-07T19:01:54.504Z,16.10
2023-09-07T19:04:21.641Z,16.00
2023-09-07T19:06:48.837Z,16.00
2023-09-07T19:09:15.775Z,16.00
2023-09-07T19:11:42.637Z,16.00
2023-09-07T19:14:09.529Z,15.90
2023-09-07T19:16:36.429Z,15.90
2023-09-07T19:19:03.508Z,15.90
2023-09-07T19:21:34.270Z,16.00
2023-09-07T19:24:04.823Z,15.90
2023-09-07T19:26:35.780Z,15.90
2023-09-07T19:29:04.700Z,15.90
2023-09-07T19:31:31.868Z,15.90
2023-09-07T19:33:59.632Z,15.90
2023-09-07T19:36:28.306Z,15.80
2023-09-07T19:38:58.476Z,15.80
2023-09-07T19:41:28.577Z,15.80
2023-09-07T19:43:55.830Z,15.80
2023-09-07T19:46:22.949Z,15.70
2023-09-07T19:48:50.479Z,15.70
2023-09-07T19:51:18.982Z,15.60
2023-09-07T19:53:46.651Z,15.60
2023-09-07T19:56:19.666Z,15.60
2023-09-07T19:58:46.615Z,15.50
2023-09-07T20:01:15.246Z,15.50
2023-09-07T20:03:45.635Z,15.50
2023-09-07T20:06:13.822Z,15.50
2023-09-07T20:08:41.485Z,15.40
2023-09-07T20:11:09.673Z,15.40
2023-09-07T20:13:36.909Z,15.40
2023-09-07T20:16:08.046Z,15.40
2023-09-07T20:18:35.259Z,15.40
2023-09-07T20:21:02.297Z,15.40
2023-09-07T20:23:29.180Z,15.40
2023-09-07T20:25:56.000Z,15.50
2023-09-07T20:28:22.865Z,15.50
2023-09-07T20:30:49.861Z,15.50
2023-09-07T20:33:16.773Z,15.50
2023-09-07T20:35:44.303Z,15.50
2023-09-07T20:38:11.467Z,15.60
2023-09-07T20:40:38.488Z,15.60
2023-09-07T20:43:08.033Z,15.60
2023-09-07T20:45:41.737Z,15.60
2023-09-07T20:48:08.820Z,15.60
2023-09-07T20:50:35.870Z,15.60
2023-09-07T20:53:03.463Z,15.60
2023-09-07T20:55:30.452Z,15.60
2023-09-07T20:57:57.396Z,15.60
2023-09-07T21:00:24.493Z,15.60
2023-09-07T21:02:51.544Z,15.70
2023-09-07T21:05:18.714Z,15.70
2023-09-07T21:07:45.612Z,15.70
2023-09-07T21:10:12.692Z,15.70
2023-09-07T21:12:42.043Z,15.70
2023-09-07T21:15:11.616Z,15.70
2023-09-07T21:17:39.562Z,15.70
2023-09-07T21:20:08.622Z,15.70
2023-09-07T21:22:35.465Z,15.80
2023-09-07T21:25:02.428Z,15.80
2023-09-07T21:27:29.398Z,15.80
2023-09-07T21:29:56.356Z,15.80
2023-09-07T21:32:23.307Z,15.80
2023-09-07T21:34:50.231Z,15.80
2023-09-07T21:37:17.125Z,15.80
2023-09-07T21:39:50.242Z,15.80
2023-09-07T21:42:17.544Z,15.80
2023-09-07T21:44:44.495Z,15.90
2023-09-07T21:47:11.517Z,15.90
2023-09-07T21:49:39.062Z,15.80
2023-09-07T21:52:06.196Z,15.80
2023-09-07T21:54:33.148Z,15.80
2023-09-07T21:57:00.432Z,15.80
2023-09-07T21:59:27.749Z,15.90
2023-09-07T22:01:55.868Z,15.90
2023-09-07T22:04:22.942Z,15.80
2023-09-07T22:06:49.905Z,15.80
2023-09-07T22:09:16.770Z,15.80
2023-09-07T22:11:43.693Z,15.80
2023-09-07T22:14:10.628Z,15.80
2023-09-07T22:16:37.502Z,15.80
2023-09-07T22:19:05.784Z,15.80
2023-09-07T22:21:33.711Z,15.80
2023-09-07T22:24:00.740Z,15.80
2023-09-07T22:26:27.742Z,15.70
2023-09-07T22:28:54.696Z,15.70
2023-09-07T22:31:21.638Z,15.70
2023-09-07T22:33:48.525Z,15.70
2023-09-07T22:36:15.446Z,15.70
2023-09-07T22:38:42.291Z,15.70
2023-09-07T22:41:09.308Z,15.70
2023-09-07T22:43:37.039Z,15.60
2023-09-07T22:46:04.048Z,15.60
2023-09-07T22:48:30.945Z,15.60
2023-09-07T22:50:57.866Z,15.60
2023-09-07T22:53:24.741Z,15.60
2023-09-07T22:55:51.772Z,15.60
2023-09-07T22:58:19.749Z,15.60
2023-09-07T23:00:48.073Z,15.60
2023-09-07T23:03:15.485Z,15.60
2023-09-07T23:05:46.482Z,15.60
2023-09-07T23:08:14.237Z,15.60
2023-09-07T23:10:43.717Z,15.60
2023-09-07T23:13:11.451Z,15.60
2023-09-07T23:15:39.574Z,15.60
2023-09-07T23:18:07.027Z,15.60
2023-09-07T23:20:34.158Z,15.60
2023-09-07T23:23:01.167Z,15.60
2023-09-07T23:25:28.148Z,15.70
2023-09-07T23:27:55.157Z,15.60
2023-09-07T23:30:22.216Z,15.60
2023-09-07T23:32:50.297Z,15.60
2023-09-07T23:35:17.897Z,15.70
2023-09-07T23:37:44.955Z,15.70
2023-09-07T23:40:14.758Z,15.60
2023-09-07T23:42:42.860Z,15.60
2023-09-07T23:45:11.144Z,15.60
2023-09-07T23:47:38.591Z,15.60
2023-09-07T23:50:06.288Z,15.60
2023-09-07T23:52:34.075Z,15.60
2023-09-07T23:55:01.326Z,15.60
2023-09-07T23:57:28.917Z,15.70
2023-09-07T23:59:59.602Z,15.70
